createdAt,value
2019-02-22T00:00:53.278Z,37.88
2019-02-22T00:03:21.991Z,40.15
2019-02-22T00:05:50.406Z,38.92
2019-02-22T00:08:18.824Z,36.23
2019-02-22T00:10:47.240Z,37.63
2019-02-22T00:13:18.651Z,35.75
2019-02-22T00:15:47.060Z,36.20
2019-02-22T00:18:15.500Z,36.70
2019-02-22T00:20:43.948Z,35.50
2019-02-22T00:23:12.389Z,33.10
2019-02-22T00:25:40.803Z,35.60
2019-02-22T00:28:09.234Z,33.55
2019-02-22T00:30:37.648Z,34.63
2019-02-22T00:33:06.435Z,35.25
2019-02-22T00:35:34.860Z,34.95
2019-02-22T00:38:03.265Z,33.90
2019-02-22T00:40:31.976Z,34.73
2019-02-22T00:43:00.396Z,35.68
2019-02-22T00:45:28.820Z,36.45
2019-02-22T00:47:57.647Z,37.08
2019-02-22T00:50:26.059Z,33.83
2019-02-22T00:52:54.469Z,35.52
2019-02-22T00:55:22.900Z,33.28
2019-02-22T00:57:51.329Z,33.83
2019-02-22T01:00:19.752Z,34.75
2019-02-22T01:02:48.167Z,33.98
2019-02-22T01:05:16.898Z,31.93
2019-02-22T01:07:45.582Z,32.75
2019-02-22T01:10:14.014Z,31.77
2019-02-22T01:12:42.427Z,34.20
2019-02-22T01:15:11.228Z,34.92
2019-02-22T01:17:39.638Z,32.08
2019-02-22T01:20:08.050Z,31.80
2019-02-22T01:22:36.483Z,32.83
2019-02-22T01:25:05.538Z,31.48
2019-02-22T01:27:33.948Z,31.57
2019-02-22T01:30:02.373Z,32.35
2019-02-22T01:32:31.099Z,29.87
2019-02-22T01:34:59.519Z,29.57
2019-02-22T01:37:27.938Z,30.85
2019-02-22T01:39:56.370Z,32.70
2019-02-22T01:42:25.131Z,31.45
2019-02-22T01:44:53.541Z,30.23
2019-02-22T01:47:21.979Z,30.27
2019-02-22T01:49:50.385Z,29.70
2019-02-22T01:52:18.818Z,30.25
2019-02-22T01:54:47.228Z,29.02
2019-02-22T01:57:15.942Z,29.07
2019-02-22T01:59:44.355Z,28.92
2019-02-22T02:02:12.768Z,27.90
2019-02-22T02:04:41.181Z,29.45
2019-02-22T02:07:09.602Z,28.30
2019-02-22T02:09:38.003Z,29.07
2019-02-22T02:12:06.696Z,28.00
2019-02-22T02:14:35.113Z,29.52
2019-02-22T02:17:03.528Z,30.12
2019-02-22T02:19:31.932Z,29.23
2019-02-22T02:22:00.355Z,30.70
2019-02-22T02:24:28.754Z,29.32
2019-02-22T02:26:57.181Z,28.85
2019-02-22T02:29:25.606Z,25.40
2019-02-22T02:31:54.019Z,26.02
2019-02-22T02:34:22.424Z,25.30
2019-02-22T02:36:50.837Z,26.30
2019-02-22T02:39:19.245Z,25.92
2019-02-22T02:41:47.971Z,24.87
2019-02-22T02:44:16.383Z,25.50
2019-02-22T02:46:44.795Z,25.37
2019-02-22T02:49:13.219Z,24.65
2019-02-22T02:51:42.093Z,25.88
2019-02-22T02:54:10.513Z,24.60
2019-02-22T02:56:38.912Z,24.95
2019-02-22T02:59:07.327Z,25.05
2019-02-22T03:01:35.733Z,24.80
2019-02-22T03:04:07.981Z,25.57
2019-02-22T03:06:38.058Z,24.72
2019-02-22T03:09:08.786Z,25.40
2019-02-22T03:11:37.191Z,27.42
2019-02-22T03:14:05.609Z,25.45
2019-02-22T03:16:34.032Z,24.92
2019-02-22T03:19:02.438Z,23.32
2019-02-22T03:21:30.855Z,23.95
2019-02-22T03:23:59.291Z,24.92
2019-02-22T03:26:28.009Z,24.23
2019-02-22T03:28:56.407Z,23.38
2019-02-22T03:31:25.276Z,23.80
2019-02-22T03:33:53.686Z,23.22
2019-02-22T03:36:22.350Z,23.60
2019-02-22T03:38:51.127Z,22.82
2019-02-22T03:41:31.962Z,23.02
2019-02-22T03:43:50.044Z,22.15
2019-02-22T03:46:18.455Z,21.57
2019-02-22T03:48:46.859Z,23.52
2019-02-22T03:51:15.311Z,21.82
2019-02-22T03:53:45.364Z,23.62
2019-02-22T03:56:13.790Z,21.25
2019-02-22T03:58:42.459Z,23.50
2019-02-22T04:01:10.885Z,21.40
2019-02-22T04:03:39.284Z,21.77
2019-02-22T04:06:07.714Z,21.45
2019-02-22T04:08:36.115Z,20.25
2019-02-22T04:11:04.964Z,18.10
2019-02-22T04:13:33.849Z,18.42
2019-02-22T04:16:02.269Z,18.45
2019-02-22T04:18:31.020Z,15.65
2019-02-22T04:20:59.439Z,11.55
2019-02-22T04:23:28.292Z,10.60
2019-02-22T04:25:56.843Z,9.55
2019-02-22T04:28:25.200Z,9.40
2019-02-22T04:30:53.609Z,8.55
2019-02-22T04:33:22.027Z,8.13
2019-02-22T04:35:50.702Z,7.53
2019-02-22T04:38:19.118Z,7.28
2019-02-22T04:40:47.515Z,6.85
2019-02-22T04:43:15.936Z,6.22
2019-02-22T04:45:44.328Z,5.92
2019-02-22T04:48:12.739Z,6.40
2019-02-22T04:50:41.213Z,5.22
2019-02-22T04:53:09.619Z,5.33
2019-02-22T04:55:38.024Z,5.37
2019-02-22T04:58:06.435Z,4.65
2019-02-22T05:00:35.185Z,4.72
2019-02-22T05:03:03.890Z,4.53
2019-02-22T05:05:32.286Z,4.20
2019-02-22T05:08:00.708Z,4.58
2019-02-22T05:10:29.129Z,4.60
2019-02-22T05:12:57.809Z,5.58
2019-02-22T05:15:26.216Z,5.15
2019-02-22T05:17:54.630Z,5.20
2019-02-22T05:20:23.029Z,5.10
2019-02-22T05:23:03.005Z,5.10
2019-02-22T05:25:21.555Z,5.30
2019-02-22T05:27:49.969Z,5.37
2019-02-22T05:30:18.368Z,6.55
2019-02-22T05:32:46.788Z,5.62
2019-02-22T05:35:15.192Z,5.83
2019-02-22T05:37:43.602Z,7.10
2019-02-22T05:40:12.004Z,6.92
2019-02-22T05:42:40.418Z,6.78
2019-02-22T05:45:08.900Z,7.40
2019-02-22T05:47:37.682Z,8.38
2019-02-22T05:50:06.453Z,8.85
2019-02-22T05:52:34.937Z,8.88
2019-02-22T05:55:03.343Z,9.23
2019-02-22T05:57:31.751Z,9.78
2019-02-22T06:00:00.343Z,9.58
2019-02-22T06:02:29.073Z,10.23
2019-02-22T06:04:57.471Z,10.25
2019-02-22T06:07:25.881Z,10.45
2019-02-22T06:09:54.308Z,10.30
2019-02-22T06:12:33.912Z,10.93
2019-02-22T06:14:53.223Z,10.50
2019-02-22T06:17:21.622Z,10.50
2019-02-22T06:19:50.302Z,9.58
2019-02-22T06:22:29.021Z,9.78
2019-02-22T06:24:49.398Z,10.43
2019-02-22T06:27:17.811Z,10.75
2019-02-22T06:29:52.213Z,10.48
2019-02-22T06:32:20.640Z,10.75
2019-02-22T06:34:49.054Z,10.90
2019-02-22T06:37:17.475Z,10.45
2019-02-22T06:39:45.900Z,10.00
2019-02-22T06:42:14.347Z,9.78
2019-02-22T06:44:42.711Z,9.93
2019-02-22T06:47:11.130Z,8.73
2019-02-22T06:49:39.838Z,8.38
2019-02-22T06:52:08.318Z,9.80
2019-02-22T06:54:36.727Z,9.43
2019-02-22T06:57:05.144Z,9.15
2019-02-22T06:59:33.549Z,7.80
2019-02-22T07:02:01.951Z,7.37
2019-02-22T07:04:30.727Z,8.03
2019-02-22T07:06:59.177Z,8.35
2019-02-22T07:09:27.582Z,9.25
2019-02-22T07:12:00.575Z,9.33
2019-02-22T07:14:28.998Z,9.08
2019-02-22T07:16:57.409Z,9.90
2019-02-22T07:55:09.632Z,10.85
2019-02-22T07:57:40.078Z,12.05
2019-02-22T08:00:14.004Z,12.03
2019-02-22T08:02:42.403Z,12.78
2019-02-22T08:09:57.039Z,11.15
2019-02-22T08:12:25.714Z,8.90
2019-02-22T08:15:31.390Z,9.80
2019-02-22T08:23:37.770Z,9.90
2019-02-22T08:26:06.485Z,7.37
2019-02-22T08:42:13.546Z,5.12
2019-02-22T08:44:42.231Z,4.53
2019-02-22T08:47:10.904Z,4.72
2019-02-22T08:49:39.594Z,4.12
2019-02-22T08:52:08.024Z,4.58
2019-02-22T08:54:46.577Z,4.58
2019-02-22T08:57:06.722Z,3.85
2019-02-22T08:59:35.125Z,3.45
2019-02-22T09:02:03.547Z,3.80
2019-02-22T09:04:31.950Z,3.75
2019-02-22T09:07:00.360Z,3.05
2019-02-22T09:09:28.769Z,3.40
2019-02-22T09:11:57.845Z,3.35
2019-02-22T09:14:26.401Z,3.22
2019-02-22T09:16:54.806Z,3.35
2019-02-22T09:19:23.205Z,3.22
2019-02-22T09:21:51.617Z,3.00
2019-02-22T09:24:20.016Z,2.58
2019-02-22T09:26:48.437Z,2.95
2019-02-22T09:29:16.825Z,2.42
2019-02-22T09:31:45.529Z,2.17
2019-02-22T09:34:13.942Z,2.60
2019-02-22T09:36:42.340Z,2.83
2019-02-22T09:39:10.763Z,2.85
2019-02-22T09:41:39.165Z,2.50
2019-02-22T09:44:07.946Z,2.70
2019-02-22T09:46:36.349Z,2.60
2019-02-22T09:49:04.765Z,3.00
2019-02-22T09:51:33.163Z,2.55
2019-02-22T09:54:01.566Z,2.58
2019-02-22T09:56:30.225Z,2.40
2019-02-22T09:58:58.635Z,2.50
2019-02-22T10:01:27.391Z,2.05
2019-02-22T10:03:55.805Z,2.12
2019-02-22T10:06:24.241Z,2.33
2019-02-22T10:08:52.614Z,2.15
2019-02-22T10:11:21.312Z,1.77
2019-02-22T10:13:50.106Z,2.40
2019-02-22T10:16:18.516Z,1.80
2019-02-22T10:18:47.059Z,2.12
2019-02-22T10:21:15.511Z,1.98
2019-02-22T10:23:43.900Z,2.30
2019-02-22T10:26:12.308Z,2.00
2019-02-22T10:28:40.726Z,2.30
2019-02-22T10:31:09.141Z,1.92
2019-02-22T10:33:37.552Z,1.80
2019-02-22T10:36:05.956Z,2.12
2019-02-22T10:38:35.957Z,2.10
2019-02-22T10:41:04.541Z,2.60
2019-02-22T10:43:32.945Z,2.65
2019-02-22T10:46:01.361Z,2.00
2019-02-22T10:48:29.755Z,1.85
2019-02-22T10:50:59.418Z,1.80
2019-02-22T10:53:28.377Z,2.00
2019-02-22T10:55:57.158Z,2.00
2019-02-22T10:58:25.560Z,1.87
2019-02-22T11:00:54.319Z,1.55
2019-02-22T11:03:23.007Z,1.87
2019-02-22T11:05:51.489Z,1.70
2019-02-22T11:08:19.895Z,2.27
2019-02-22T11:10:48.657Z,1.95
2019-02-22T11:13:17.062Z,2.65
2019-02-22T11:15:45.479Z,2.30
2019-02-22T11:18:14.196Z,2.27
2019-02-22T11:20:42.603Z,2.30
2019-02-22T11:23:11.032Z,2.90
2019-02-22T11:25:39.445Z,2.33
2019-02-22T11:28:08.234Z,2.00
2019-02-22T11:30:36.636Z,2.20
2019-02-22T11:33:05.116Z,2.00
2019-02-22T11:35:33.518Z,2.25
2019-02-22T11:38:02.263Z,2.00
2019-02-22T11:40:30.664Z,2.10
2019-02-22T11:42:59.097Z,2.08
2019-02-22T11:45:27.506Z,2.00
2019-02-22T11:47:55.924Z,2.42
2019-02-22T11:50:24.326Z,2.08
2019-02-22T11:52:52.748Z,2.30
2019-02-22T11:55:21.547Z,3.00
2019-02-22T11:57:49.965Z,2.20
2019-02-22T12:00:23.295Z,2.55
2019-02-22T12:02:51.745Z,2.60
2019-02-22T12:05:20.109Z,2.35
2019-02-22T12:07:48.843Z,2.67
2019-02-22T12:10:17.545Z,2.50
2019-02-22T12:12:45.998Z,2.90
2019-02-22T12:15:14.833Z,2.50
2019-02-22T12:17:43.591Z,2.25
2019-02-22T12:20:12.599Z,2.05
2019-02-22T12:22:40.999Z,2.35
2019-02-22T12:25:11.545Z,2.17
2019-02-22T12:27:39.941Z,1.90
2019-02-22T12:30:19.065Z,2.10
2019-02-22T12:32:47.467Z,2.08
2019-02-22T12:35:15.883Z,2.17
2019-02-22T12:37:44.456Z,2.35
2019-02-22T12:40:13.240Z,2.02
2019-02-22T12:42:41.647Z,2.33
2019-02-22T12:45:11.611Z,2.30
2019-02-22T12:47:40.314Z,2.20
2019-02-22T12:50:12.433Z,2.30
2019-02-22T12:55:11.603Z,2.52
2019-02-22T12:57:40.293Z,2.20
2019-02-22T13:00:19.317Z,2.47
2019-02-22T13:02:48.088Z,2.65
2019-02-22T13:05:22.090Z,2.35
2019-02-22T13:07:52.574Z,2.70
2019-02-22T13:10:21.019Z,2.35
2019-02-22T13:12:49.440Z,2.62
2019-02-22T13:15:18.197Z,2.60
2019-02-22T13:17:46.874Z,2.60
2019-02-22T13:20:15.342Z,2.40
2019-02-22T13:22:44.040Z,2.33
2019-02-22T13:25:12.465Z,2.20
2019-02-22T13:27:40.864Z,2.42
2019-02-22T13:30:14.671Z,2.02
2019-02-22T13:32:43.978Z,2.17
2019-02-22T13:35:12.377Z,2.40
2019-02-22T13:37:41.061Z,2.22
2019-02-22T13:40:15.548Z,2.27
2019-02-22T13:42:44.317Z,2.20
2019-02-22T13:45:25.538Z,2.10
2019-02-22T13:47:44.137Z,2.58
2019-02-22T13:50:19.850Z,2.20
2019-02-22T13:52:48.261Z,2.52
2019-02-22T13:55:16.688Z,2.58
2019-02-22T13:57:45.087Z,2.77
2019-02-22T14:00:18.868Z,2.20
2019-02-22T14:02:47.246Z,2.65
2019-02-22T14:05:15.739Z,2.35
2019-02-22T14:07:57.027Z,2.17
2019-02-22T14:10:26.087Z,2.87
2019-02-22T14:12:54.489Z,2.37
2019-02-22T14:15:22.920Z,2.47
2019-02-22T14:17:51.332Z,2.47
2019-02-22T14:20:20.111Z,2.30
2019-02-22T14:22:50.255Z,2.40
2019-02-22T14:25:18.730Z,2.17
2019-02-22T14:27:47.130Z,2.00
2019-02-22T14:30:18.220Z,2.08
2019-02-22T14:32:47.221Z,2.27
2019-02-22T14:35:15.710Z,2.17
2019-02-22T14:37:44.233Z,1.85
2019-02-22T14:40:13.602Z,2.17
2019-02-22T14:42:42.005Z,2.22
2019-02-22T14:45:14.739Z,3.15
2019-02-22T14:47:43.146Z,2.25
2019-02-22T14:50:16.943Z,3.40
2019-02-22T14:52:50.222Z,1.98
2019-02-22T14:55:16.445Z,2.30
2019-02-22T14:57:45.501Z,2.33
2019-02-22T15:00:16.717Z,2.20
2019-02-22T15:02:45.127Z,2.10
2019-02-22T15:05:16.626Z,2.02
2019-02-22T15:07:45.020Z,2.20
2019-02-22T15:10:13.566Z,2.15
2019-02-22T15:12:42.064Z,2.62
2019-02-22T15:15:18.873Z,2.05
2019-02-22T15:17:48.930Z,2.02
2019-02-22T15:20:17.658Z,2.27
2019-02-22T15:22:46.080Z,2.25
2019-02-22T15:25:16.232Z,1.90
2019-02-22T15:27:44.933Z,2.12
2019-02-22T15:30:15.173Z,2.35
2019-02-22T15:32:43.845Z,2.40
2019-02-22T15:35:14.474Z,2.65
2019-02-22T15:37:43.586Z,2.58
2019-02-22T15:40:13.591Z,2.70
2019-02-22T15:42:42.389Z,2.30
2019-02-22T15:45:18.478Z,2.12
2019-02-22T15:47:48.852Z,2.30
2019-02-22T15:50:18.343Z,2.52
2019-02-22T15:52:48.225Z,2.52
2019-02-22T15:55:16.665Z,2.35
2019-02-22T15:57:45.438Z,2.30
2019-02-22T16:00:25.843Z,2.15
2019-02-22T16:02:54.515Z,2.27
2019-02-22T16:05:24.631Z,2.50
2019-02-22T16:07:53.298Z,2.50
2019-02-22T16:10:21.707Z,2.20
2019-02-22T16:12:50.183Z,2.58
2019-02-22T16:15:18.954Z,2.70
2019-02-22T16:17:47.939Z,2.58
2019-02-22T16:20:17.861Z,2.40
2019-02-22T16:22:46.902Z,2.87
2019-02-22T16:25:19.474Z,2.55
2019-02-22T16:27:45.856Z,2.60
2019-02-22T16:30:17.740Z,3.02
2019-02-22T16:32:46.145Z,2.90
2019-02-22T16:35:15.181Z,2.83
2019-02-22T16:37:44.168Z,2.60
2019-02-22T16:40:13.218Z,2.58
2019-02-22T16:42:41.890Z,2.47
2019-02-22T16:45:12.152Z,2.83
2019-02-22T16:47:42.421Z,2.52
2019-02-22T16:50:12.341Z,2.70
2019-02-22T16:52:40.770Z,2.70
2019-02-22T16:55:12.116Z,2.80
2019-02-22T16:57:42.051Z,3.05
2019-02-22T17:00:12.822Z,2.77
2019-02-22T17:02:41.279Z,3.33
2019-02-22T17:05:12.021Z,2.50
2019-02-22T17:07:40.512Z,3.87
2019-02-22T17:10:11.324Z,3.62
2019-02-22T17:12:39.871Z,3.77
2019-02-22T17:15:11.295Z,3.90
2019-02-22T17:17:44.601Z,3.50
2019-02-22T17:20:15.338Z,4.05
2019-02-22T17:22:43.920Z,3.37
2019-02-22T17:25:17.168Z,3.20
2019-02-22T17:27:45.615Z,2.72
2019-02-22T17:30:16.495Z,3.20
2019-02-22T17:32:44.861Z,3.05
2019-02-22T17:35:13.339Z,2.80
2019-02-22T17:37:41.750Z,3.30
2019-02-22T17:40:13.412Z,3.22
2019-02-22T17:42:42.065Z,3.20
2019-02-22T17:45:10.758Z,3.17
2019-02-22T17:47:39.165Z,3.37
2019-02-22T17:50:09.616Z,3.00
2019-02-22T17:52:38.013Z,3.50
2019-02-22T17:55:08.366Z,3.20
2019-02-22T17:57:36.765Z,3.12
2019-02-22T18:00:15.632Z,3.47
2019-02-22T18:02:44.168Z,3.15
2019-02-22T18:05:12.620Z,3.50
2019-02-22T18:07:41.022Z,3.42
2019-02-22T18:10:10.774Z,3.40
2019-02-22T18:12:39.171Z,3.40
2019-02-22T18:15:17.220Z,3.45
2019-02-22T18:17:44.800Z,3.40
2019-02-22T18:20:13.250Z,3.70
2019-02-22T18:22:41.943Z,3.50
2019-02-22T18:25:10.477Z,3.67
2019-02-22T18:27:40.321Z,3.65
2019-02-22T18:30:17.825Z,3.17
2019-02-22T18:32:46.265Z,3.35
2019-02-22T18:35:15.011Z,3.40
2019-02-22T18:37:43.684Z,3.75
2019-02-22T18:40:15.235Z,3.72
2019-02-22T18:42:43.659Z,3.60
2019-02-22T18:45:12.077Z,3.50
2019-02-22T18:47:40.480Z,3.90
2019-02-22T18:50:11.965Z,3.62
2019-02-22T18:52:40.366Z,3.92
2019-02-22T18:55:10.129Z,4.53
2019-02-22T18:57:39.105Z,4.65
2019-02-22T19:00:20.315Z,4.22
2019-02-22T19:02:49.279Z,4.25
2019-02-22T19:05:17.748Z,4.58
2019-02-22T19:07:46.159Z,3.75
2019-02-22T19:10:15.593Z,4.20
2019-02-22T19:12:44.002Z,3.72
2019-02-22T19:15:18.215Z,4.05
2019-02-22T19:17:46.640Z,3.60
2019-02-22T19:20:21.580Z,3.83
2019-02-22T19:22:49.990Z,3.83
2019-02-22T19:25:18.422Z,3.98
2019-02-22T19:27:46.906Z,3.42
2019-02-22T19:30:20.100Z,4.12
2019-02-22T19:32:48.511Z,4.15
2019-02-22T19:35:16.904Z,4.10
2019-02-22T19:37:45.326Z,4.17
2019-02-22T19:40:16.361Z,3.70
2019-02-22T19:42:44.788Z,4.15
2019-02-22T19:45:13.230Z,3.45
2019-02-22T19:47:42.530Z,4.05
2019-02-22T19:50:14.529Z,4.00
2019-02-22T19:52:42.943Z,4.00
2019-02-22T19:55:19.143Z,4.17
2019-02-22T19:57:47.537Z,4.12
2019-02-22T20:00:19.571Z,4.40
2019-02-22T20:05:16.155Z,4.47
2019-02-22T20:07:44.560Z,4.35
2019-02-22T20:10:18.103Z,4.97
2019-02-22T20:12:45.370Z,4.83
2019-02-22T20:15:18.081Z,4.97
2019-02-22T20:17:53.910Z,4.42
2019-02-22T20:20:18.021Z,4.37
2019-02-22T20:22:46.610Z,4.30
2019-02-22T20:25:15.097Z,4.33
2019-02-22T20:27:43.515Z,4.10
2019-02-22T20:30:14.459Z,4.15
2019-02-22T20:32:42.849Z,4.58
2019-02-22T20:35:13.813Z,4.65
2019-02-22T20:37:51.763Z,4.22
2019-02-22T20:40:12.345Z,4.12
2019-02-22T20:42:40.814Z,4.28
2019-02-22T20:45:11.385Z,4.55
2019-02-22T20:47:39.784Z,5.03
2019-02-22T20:50:11.297Z,3.60
2019-02-22T20:52:39.708Z,4.87
2019-02-22T20:55:11.875Z,4.37
2019-02-22T20:57:40.417Z,4.42
2019-02-22T21:00:15.292Z,4.75
2019-02-22T21:02:43.694Z,3.95
2019-02-22T21:05:12.158Z,4.92
2019-02-22T21:07:40.615Z,4.28
2019-02-22T21:10:11.719Z,4.40
2019-02-22T21:12:40.452Z,4.33
2019-02-22T21:15:11.324Z,4.90
2019-02-22T21:17:39.749Z,5.12
2019-02-22T21:20:10.917Z,4.70
2019-02-22T21:22:39.328Z,4.30
2019-02-22T21:25:09.877Z,4.55
2019-02-22T21:27:38.308Z,4.10
2019-02-22T21:30:09.813Z,3.85
2019-02-22T21:32:38.223Z,4.35
2019-02-22T21:35:08.164Z,4.03
2019-02-22T21:37:36.650Z,3.90
2019-02-22T21:40:07.400Z,4.25
2019-02-22T21:42:36.118Z,4.35
2019-02-22T21:45:06.658Z,3.90
2019-02-22T21:47:35.108Z,4.45
2019-02-22T21:50:04.459Z,3.95
2019-02-22T21:52:32.880Z,4.00
2019-02-22T21:55:01.280Z,3.83
2019-02-22T21:57:29.706Z,4.58
2019-02-22T21:59:58.118Z,4.30
2019-02-22T22:02:26.876Z,3.58
2019-02-22T22:04:55.329Z,4.35
2019-02-22T22:07:23.718Z,3.90
2019-02-22T22:09:52.198Z,3.67
2019-02-22T22:12:20.597Z,4.25
2019-02-22T22:14:49.014Z,4.17
2019-02-22T22:17:17.415Z,4.12
2019-02-22T22:19:45.887Z,4.00
2019-02-22T22:22:14.265Z,4.15
2019-02-22T22:24:43.047Z,4.42
2019-02-22T22:27:11.445Z,3.98
2019-02-22T22:29:39.853Z,4.08
2019-02-22T22:32:08.258Z,4.37
2019-02-22T22:34:36.665Z,4.10
2019-02-22T22:37:05.067Z,3.62
2019-02-22T22:39:33.482Z,3.52
2019-02-22T22:42:01.885Z,3.87
2019-02-22T22:44:30.317Z,4.20
2019-02-22T22:46:59.086Z,3.70
2019-02-22T22:49:27.518Z,3.87
2019-02-22T22:51:55.913Z,4.17
2019-02-22T22:54:24.320Z,4.30
2019-02-22T22:56:53.145Z,4.20
2019-02-22T22:59:21.544Z,3.60
2019-02-22T23:01:50.892Z,4.20
2019-02-22T23:04:19.302Z,3.80
2019-02-22T23:06:48.057Z,4.50
2019-02-22T23:09:20.740Z,3.70
2019-02-22T23:11:49.151Z,4.03
2019-02-22T23:14:17.634Z,3.77
2019-02-22T23:16:46.367Z,3.80
2019-02-22T23:19:14.847Z,3.75
2019-02-22T23:21:43.550Z,4.10
2019-02-22T23:24:11.950Z,3.95
2019-02-22T23:26:40.717Z,3.87
2019-02-22T23:29:09.402Z,3.72
2019-02-22T23:31:38.081Z,4.40
2019-02-22T23:34:06.469Z,3.77
2019-02-22T23:36:34.883Z,4.00
2019-02-22T23:39:03.984Z,3.70
2019-02-22T23:41:32.719Z,4.17
2019-02-22T23:44:01.120Z,3.85
2019-02-22T23:46:29.895Z,3.98
2019-02-22T23:48:58.295Z,3.98
2019-02-22T23:51:26.692Z,4.15
2019-02-22T23:53:55.099Z,3.58
2019-02-22T23:56:23.854Z,4.00
2019-02-22T23:58:52.271Z,3.70
